Time;durP1;ratioP1;P1;durP2;ratioP2;P2;SDS_P1;SDS_P2;PMS_P1;PMS_P2;Temp;Humidity;BMP_temperature;BMP_pressure;BME280_temperature;BME280_humidity;BME280_pressure;Samples;Min_cycle;Max_cycle;Signal;HPM_P1;HPM_P2
2021/06/17 00:02:43;;;;;;;7.63;6.93;;;;;;;20.14;69.29;100921.09;10587589;28;20047;-61
2021/06/17 00:07:46;;;;;;;9.18;7.38;;;;;;;20.03;70.20;100927.47;10568706;28;20059;-60
2021/06/17 00:12:49;;;;;;;11.07;7.47;;;;;;;19.84;70.92;100931.03;10587490;28;20054;-61
2021/06/17 00:17:52;;;;;;;8.68;7.90;;;;;;;19.50;72.43;100926.19;10584636;28;20086;-61
2021/06/17 00:22:55;;;;;;;9.70;7.80;;;;;;;19.79;72.35;100920.00;10586497;28;20051;-61
2021/06/17 00:27:57;;;;;;;11.30;8.27;;;;;;;19.78;71.81;100916.50;10584727;28;20050;-60
2021/06/17 00:33:00;;;;;;;8.75;7.95;;;;;;;19.54;72.99;100909.00;10584531;28;20048;-60
2021/06/17 00:38:04;;;;;;;8.15;7.35;;;;;;;19.65;71.20;100907.97;10584940;28;20055;-60
2021/06/17 00:43:07;;;;;;;8.80;7.97;;;;;;;19.37;73.46;100907.09;10585399;28;20059;-61
2021/06/17 00:48:11;;;;;;;8.48;7.75;;;;;;;19.42;72.79;100916.28;10585241;28;20043;-61
2021/06/17 00:53:14;;;;;;;10.38;7.75;;;;;;;19.38;72.74;100911.41;10585803;28;20058;-60
2021/06/17 00:58:17;;;;;;;8.18;7.07;;;;;;;19.35;72.89;100904.56;10584758;28;20047;-60
2021/06/17 01:03:20;;;;;;;8.27;7.32;;;;;;;19.43;72.54;100899.41;10584594;28;20058;-62
2021/06/17 01:08:40;;;;;;;7.95;6.78;;;;;;;19.37;72.17;100892.00;10584278;28;20415;-60
2021/06/17 01:13:47;;;;;;;7.22;6.53;;;;;;;19.34;72.52;100886.13;10584294;28;20044;-60
2021/06/17 01:18:57;;;;;;;8.77;7.45;;;;;;;19.35;72.11;100880.69;10584241;28;20051;-60
2021/06/17 01:24:25;;;;;;;10.32;7.55;;;;;;;19.24;72.43;100868.41;10583699;28;20048;-60
2021/06/17 01:29:27;;;;;;;8.13;7.18;;;;;;;19.20;73.23;100874.97;10569290;28;20047;-60
2021/06/17 01:34:31;;;;;;;8.23;7.07;;;;;;;19.17;73.42;100877.91;10581954;28;20509;-61
2021/06/17 01:39:33;;;;;;;9.30;7.50;;;;;;;19.02;73.96;100877.50;10581730;28;20055;-59
2021/06/17 01:44:36;;;;;;;8.65;7.28;;;;;;;19.16;72.88;100878.06;10581903;28;20055;-60
2021/06/17 01:49:39;;;;;;;10.52;7.45;;;;;;;19.16;72.42;100876.22;10581601;28;20040;-59
2021/06/17 01:54:41;;;;;;;9.80;7.78;;;;;;;19.05;73.27;100889.69;10581474;28;20043;-59
2021/06/17 01:59:44;;;;;;;9.43;7.22;;;;;;;18.94;73.90;100886.16;10582406;28;20506;-60
2021/06/17 02:04:49;;;;;;;9.18;8.13;;;;;;;18.93;73.56;100883.69;10581175;28;20054;-62
2021/06/17 02:09:53;;;;;;;7.57;6.22;;;;;;;18.87;73.64;100885.06;10580956;28;20047;-60
2021/06/17 02:14:56;;;;;;;8.50;7.65;;;;;;;18.89;73.56;100882.28;10581637;28;20419;-60
2021/06/17 02:19:58;;;;;;;8.68;6.72;;;;;;;18.85;73.18;100880.88;10580696;28;20517;-60
2021/06/17 02:25:00;;;;;;;8.02;7.10;;;;;;;18.88;72.02;100878.78;10581605;28;20055;-59
2021/06/17 02:30:08;;;;;;;9.85;7.82;;;;;;;18.75;73.80;100884.31;10582453;28;20062;-60
2021/06/17 02:35:11;;;;;;;9.70;6.90;;;;;;;19.15;71.59;100879.03;10581873;28;20044;-60
2021/06/17 02:40:17;;;;;;;10.40;7.45;;;;;;;19.32;68.60;100878.31;10584135;28;20054;-60
2021/06/17 02:45:37;;;;;;;9.98;6.47;;;;;;;19.43;70.56;100869.34;10589316;28;20051;-60
2021/06/17 02:50:40;;;;;;;9.10;7.28;;;;;;;19.55;70.02;100873.50;10588723;28;20048;-60
2021/06/17 02:55:43;;;;;;;10.57;7.93;;;;;;;20.00;67.38;100858.66;10588206;28;20479;-59
2021/06/17 03:00:58;;;;;;;12.00;9.18;;;;;;;20.23;67.56;100854.59;10589631;28;20066;-62
2021/06/17 03:06:21;;;;;;;10.07;8.02;;;;;;;20.22;66.81;100847.63;10587897;28;20379;-60
2021/06/17 03:11:31;;;;;;;9.90;8.15;;;;;;;21.05;63.94;100857.22;10588970;28;20070;-59
2021/06/17 03:16:36;;;;;;;13.15;8.70;;;;;;;20.94;63.83;100852.13;10588877;28;20055;-60
2021/06/17 03:21:48;;;;;;;10.68;9.13;;;;;;;21.18;63.95;100859.44;10588711;28;20555;-60
2021/06/17 03:26:52;;;;;;;11.95;10.20;;;;;;;21.40;63.45;100862.59;10588586;28;20051;-62
2021/06/17 03:31:58;;;;;;;9.32;8.35;;;;;;;21.15;64.50;100857.13;10587208;28;20052;-61
2021/06/17 03:37:01;;;;;;;14.15;10.82;;;;;;;21.41;63.35;100856.28;10587465;28;20047;-60
2021/06/17 03:42:05;;;;;;;14.52;9.35;;;;;;;21.09;64.88;100841.75;10586962;28;20047;-60
2021/06/17 03:47:11;;;;;;;10.80;9.68;;;;;;;21.21;64.27;100837.00;10586313;28;20483;-59
2021/06/17 03:52:16;;;;;;;11.45;9.15;;;;;;;21.30;64.24;100834.25;10585737;28;20105;-61
2021/06/17 03:57:23;;;;;;;13.68;9.15;;;;;;;21.09;64.65;100845.25;10586867;28;20449;-59
2021/06/17 04:02:28;;;;;;;12.00;8.45;;;;;;;21.24;63.49;100844.69;10586288;28;20054;-61
2021/06/17 04:07:33;;;;;;;12.70;10.48;;;;;;;21.19;64.28;100854.97;10585727;28;20054;-59
2021/06/17 04:12:37;;;;;;;11.77;10.00;;;;;;;21.21;64.22;100859.13;10585724;28;20063;-60
2021/06/17 04:17:42;;;;;;;19.00;10.02;;;;;;;21.45;62.54;100860.28;10584859;28;20497;-59
2021/06/17 04:22:46;;;;;;;10.20;8.80;;;;;;;21.55;62.18;100849.56;10585998;28;20051;-60
2021/06/17 04:27:51;;;;;;;14.55;9.43;;;;;;;21.64;61.44;100862.75;10585001;28;20050;-61
2021/06/17 04:32:54;;;;;;;12.50;8.38;;;;;;;21.69;61.94;100867.63;10586410;28;20048;-60
2021/06/17 04:37:57;;;;;;;12.10;8.82;;;;;;;21.55;61.96;100858.38;10585803;28;20056;-61
2021/06/17 04:43:00;;;;;;;11.43;9.18;;;;;;;21.67;61.64;100864.25;10585465;28;20051;-61
2021/06/17 04:48:08;;;;;;;12.43;8.77;;;;;;;21.77;61.22;100859.66;10584139;28;20048;-61
2021/06/17 04:53:13;;;;;;;10.80;8.48;;;;;;;21.84;61.09;100863.34;10585012;28;20044;-61
2021/06/17 04:58:16;;;;;;;10.10;8.02;;;;;;;21.79;61.55;100871.00;10583777;28;20051;-60
2021/06/17 05:03:19;;;;;;;11.75;8.00;;;;;;;22.03;61.14;100877.41;10584811;28;20051;-61
2021/06/17 05:13:31;;;;;;;10.05;7.85;;;;;;;22.28;59.87;100881.03;10584090;28;20402;-59
2021/06/17 05:18:33;;;;;;;9.02;7.38;;;;;;;22.36;59.44;100877.53;10584012;28;20044;-59
2021/06/17 05:23:38;;;;;;;8.70;7.80;;;;;;;22.50;59.71;100874.25;10584002;28;20055;-60
2021/06/17 05:28:40;;;;;;;6.63;6.03;;;;;;;22.75;59.17;100871.59;10583452;28;20039;-60
2021/06/17 05:33:44;;;;;;;8.85;7.28;;;;;;;22.97;57.71;100870.94;10583392;28;20047;-61
2021/06/17 05:38:48;;;;;;;9.05;6.50;;;;;;;23.02;58.68;100865.09;10583331;28;20491;-60
2021/06/17 05:43:50;;;;;;;11.43;7.00;;;;;;;23.07;59.56;100868.13;10583146;28;20055;-60
2021/06/17 05:48:53;;;;;;;9.85;7.68;;;;;;;23.06;57.91;100879.78;10583059;28;20055;-60
2021/06/17 05:53:55;;;;;;;10.18;7.00;;;;;;;23.14;58.12;100882.47;10582602;28;20513;-60
2021/06/17 05:58:57;;;;;;;7.45;6.60;;;;;;;23.16;58.50;100890.31;10582594;28;20130;-60
2021/06/17 06:04:00;;;;;;;6.78;5.57;;;;;;;23.10;57.67;100896.31;10582431;28;20055;-60
2021/06/17 06:09:03;;;;;;;8.43;6.75;;;;;;;23.16;58.65;100887.63;10582094;28;20478;-60
2021/06/17 06:14:05;;;;;;;7.72;6.85;;;;;;;23.27;58.64;100884.63;10581660;28;20056;-61
2021/06/17 06:19:07;;;;;;;10.00;7.18;;;;;;;23.44;57.84;100893.44;10581791;28;20521;-60
2021/06/17 06:24:10;;;;;;;12.63;6.03;;;;;;;23.43;58.06;100888.25;10582207;28;20052;-59
2021/06/17 06:29:12;;;;;;;11.02;7.40;;;;;;;23.48;57.22;100899.28;10581833;28;20089;-60
2021/06/17 06:34:15;;;;;;;8.07;6.20;;;;;;;23.51;57.96;100904.28;10581376;28;20506;-60
2021/06/17 06:39:18;;;;;;;10.95;7.10;;;;;;;23.76;57.18;100909.56;10580987;28;20048;-59
2021/06/17 06:44:22;;;;;;;13.20;6.60;;;;;;;24.48;56.11;100893.38;10581434;28;20051;-61
2021/06/17 06:49:25;;;;;;;9.55;7.05;;;;;;;24.56;55.64;100892.50;10581654;28;20127;-60
2021/06/17 06:54:27;;;;;;;14.00;6.30;;;;;;;24.90;54.26;100894.78;10580718;28;20050;-61
2021/06/17 06:59:29;;;;;;;7.35;6.32;;;;;;;25.21;54.55;100894.66;10579486;28;20422;-61
2021/06/17 07:04:33;;;;;;;8.05;6.15;;;;;;;25.34;53.41;100903.97;10581066;28;20486;-61
2021/06/17 07:09:36;;;;;;;6.90;5.72;;;;;;;25.15;54.35;100911.47;10581456;28;20050;-62
2021/06/17 07:14:38;;;;;;;8.80;5.55;;;;;;;24.92;53.36;100906.13;10580563;28;20051;-62
2021/06/17 07:19:41;;;;;;;8.50;5.68;;;;;;;25.10;52.65;100907.66;10581699;28;20044;-61
2021/06/17 07:24:44;;;;;;;13.82;5.78;;;;;;;25.45;52.85;100908.84;10580638;28;20127;-63
2021/06/17 07:29:46;;;;;;;6.50;5.28;;;;;;;24.92;54.06;100902.63;10586638;28;20054;-62
2021/06/17 07:34:49;;;;;;;8.20;5.80;;;;;;;24.95;54.59;100929.03;10588222;28;20070;-62
2021/06/17 07:39:51;;;;;;;7.40;4.57;;;;;;;25.54;56.66;100917.66;10587703;28;20051;-63
2021/06/17 07:44:53;;;;;;;5.90;4.30;;;;;;;25.76;54.54;100921.28;10587548;28;20486;-58
2021/06/17 07:49:56;;;;;;;11.57;4.70;;;;;;;26.09;53.13;100937.84;10587706;28;20070;-60
2021/06/17 07:54:58;;;;;;;8.15;4.45;;;;;;;26.25;48.61;100925.22;10587413;28;20044;-58
2021/06/17 08:00:00;;;;;;;6.75;4.82;;;;;;;26.45;48.29;100918.22;10587608;28;20046;-59
2021/06/17 08:05:04;;;;;;;5.85;4.10;;;;;;;26.79;48.37;100923.97;10586909;28;20051;-59
2021/06/17 08:10:07;;;;;;;6.05;4.28;;;;;;;27.47;49.88;100916.31;10587198;28;20047;-58
2021/06/17 08:15:10;;;;;;;7.70;3.92;;;;;;;27.54;47.79;100905.59;10585179;28;20517;-61
2021/06/17 08:20:13;;;;;;;4.72;3.65;;;;;;;28.50;43.22;100918.25;10586711;28;20047;-61
2021/06/17 08:25:15;;;;;;;7.40;4.10;;;;;;;29.08;43.02;100920.38;10586197;28;20058;-62
2021/06/17 08:30:19;;;;;;;5.88;3.78;;;;;;;28.81;42.07;100931.16;10587030;28;20044;-60
2021/06/17 08:35:21;;;;;;;6.43;3.50;;;;;;;29.78;40.54;100920.75;10584476;28;20044;-60
2021/06/17 08:40:31;;;;;;;7.70;3.50;;;;;;;29.73;41.12;100915.13;10584986;28;20056;-61
2021/06/17 08:45:33;;;;;;;6.20;3.17;;;;;;;29.98;43.36;100907.19;10584477;28;20052;-61
2021/06/17 08:50:35;;;;;;;5.22;3.75;;;;;;;31.34;39.71;100909.66;10585356;28;20043;-60
2021/06/17 08:55:39;;;;;;;6.55;3.58;;;;;;;30.43;40.52;100897.44;10584850;28;20087;-61
2021/06/17 09:00:43;;;;;;;5.40;3.13;;;;;;;31.37;38.08;100889.41;10585041;28;20047;-62
2021/06/17 09:05:57;;;;;;;6.38;3.40;;;;;;;31.35;38.10;100872.59;10584528;28;20059;-60
2021/06/17 09:10:59;;;;;;;5.40;3.13;;;;;;;32.04;36.79;100867.84;10584494;28;20054;-62
2021/06/17 09:16:03;;;;;;;8.70;3.28;;;;;;;31.90;36.97;100867.19;10584029;28;20055;-62
2021/06/17 09:21:07;;;;;;;6.85;3.17;;;;;;;32.01;37.07;100852.03;10583850;28;20430;-61
2021/06/17 09:26:13;;;;;;;6.47;3.40;;;;;;;31.89;38.48;100852.00;10583474;28;20491;-61
2021/06/17 09:31:20;;;;;;;6.10;3.55;;;;;;;31.77;37.07;100845.69;10583820;28;20078;-59
2021/06/17 09:36:29;;;;;;;8.23;3.58;;;;;;;32.19;37.75;100843.09;10583234;28;20062;-60
2021/06/17 09:41:36;;;;;;;7.13;3.08;;;;;;;32.50;37.80;100833.03;10583487;28;20070;-61
2021/06/17 09:46:39;;;;;;;6.10;3.03;;;;;;;32.90;37.51;100846.78;10583095;28;20055;-62
2021/06/17 09:51:44;;;;;;;4.63;3.60;;;;;;;32.03;38.77;100848.06;10581089;28;20054;-62
2021/06/17 09:56:55;;;;;;;4.40;3.70;;;;;;;32.29;36.29;100851.47;10582523;28;20043;-62
2021/06/17 10:01:58;;;;;;;5.38;3.00;;;;;;;33.66;35.92;100835.16;10581674;28;20047;-63
2021/06/17 10:07:01;;;;;;;6.05;3.00;;;;;;;33.57;36.12;100818.38;10582213;28;20096;-61
2021/06/17 10:12:05;;;;;;;10.50;3.25;;;;;;;33.47;36.05;100805.47;10582713;28;20051;-62
2021/06/17 10:17:07;;;;;;;6.47;3.22;;;;;;;33.41;35.95;100794.75;10581966;28;20060;-63
2021/06/17 10:22:10;;;;;;;6.00;3.13;;;;;;;33.52;35.48;100799.28;10580961;28;20040;-62
2021/06/17 10:27:12;;;;;;;3.90;3.55;;;;;;;33.34;35.17;100800.31;10581695;28;20054;-62
2021/06/17 10:32:16;;;;;;;8.68;3.75;;;;;;;33.24;34.03;100819.91;10581580;28;20479;-62
2021/06/17 10:37:31;;;;;;;5.47;3.80;;;;;;;33.69;34.34;100812.94;10582091;28;20130;-62
2021/06/17 10:42:38;;;;;;;7.00;3.50;;;;;;;33.67;34.51;100818.63;10582000;28;20051;-62
2021/06/17 10:47:47;;;;;;;8.50;4.25;;;;;;;33.62;33.16;100818.50;10581419;28;20483;-63
2021/06/17 10:52:52;;;;;;;6.50;4.32;;;;;;;32.54;35.32;100824.19;10581935;28;20047;-62
2021/06/17 10:57:57;;;;;;;8.57;3.88;;;;;;;32.61;38.48;100839.53;10581085;28;20411;-63
2021/06/17 11:03:05;;;;;;;11.95;4.35;;;;;;;33.21;33.97;100827.69;10587056;28;20044;-63
2021/06/17 11:08:14;;;;;;;3.97;3.55;;;;;;;33.07;34.21;100836.03;10589309;28;20505;-63
2021/06/17 11:13:29;;;;;;;5.80;3.57;;;;;;;34.20;32.45;100837.53;10589232;28;20135;-62
2021/06/17 11:18:48;;;;;;;8.82;4.38;;;;;;;34.79;32.89;100851.59;10588647;28;20048;-62
2021/06/17 11:24:13;;;;;;;5.05;3.47;;;;;;;34.19;33.24;100860.31;10589390;28;20050;-62
2021/06/17 11:29:20;;;;;;;6.60;3.13;;;;;;;36.22;32.97;100875.53;10575753;28;20044;-61
2021/06/17 11:34:29;;;;;;;7.55;3.75;;;;;;;36.79;31.19;100877.66;10586974;28;20047;-61
2021/06/17 11:39:33;;;;;;;7.82;3.40;;;;;;;35.40;30.68;100877.25;10587552;28;20110;-61
2021/06/17 11:44:36;;;;;;;11.40;3.80;;;;;;;37.37;30.56;100887.88;10587484;28;20457;-61
2021/06/17 11:49:43;;;;;;;8.05;3.28;;;;;;;36.95;28.05;100883.22;10587593;28;20388;-61
2021/06/17 11:54:47;;;;;;;7.80;3.47;;;;;;;37.48;28.90;100884.09;10587732;28;20047;-62
2021/06/17 11:59:50;;;;;;;7.50;3.60;;;;;;;36.96;29.65;100891.16;10587681;28;20047;-61
2021/06/17 12:05:02;;;;;;;9.35;3.30;;;;;;;37.29;28.84;100888.38;10587065;28;20050;-63
2021/06/17 12:10:09;;;;;;;10.07;3.47;;;;;;;37.67;29.83;100892.66;10587112;28;20044;-63
2021/06/17 12:15:22;;;;;;;5.13;1.98;;;;;;;36.60;25.64;100898.22;10585791;28;20043;-63
2021/06/17 12:20:28;;;;;;;4.18;1.98;;;;;;;37.12;26.03;100903.00;10586737;28;20039;-62
2021/06/17 12:25:58;;;;;;;5.22;2.08;;;;;;;37.03;26.20;100901.03;10586142;27;20470;-62
2021/06/17 12:31:00;;;;;;;6.70;3.20;;;;;;;37.51;26.70;100894.50;10575772;28;20078;-63
2021/06/17 12:36:14;;;;;;;4.80;1.95;;;;;;;37.50;26.36;100901.03;10585845;28;20399;-63
2021/06/17 12:41:19;;;;;;;8.77;2.63;;;;;;;37.71;26.30;100899.25;10585879;28;20051;-62
2021/06/17 12:46:36;;;;;;;10.65;2.35;;;;;;;35.50;25.90;100905.41;10585167;28;20048;-61
2021/06/17 12:52:04;;;;;;;6.32;1.73;;;;;;;36.99;26.84;100919.84;10585432;28;20484;-61
2021/06/17 12:57:06;;;;;;;5.78;1.92;;;;;;;37.76;24.92;100917.59;10585740;28;20062;-61
2021/06/17 13:02:11;;;;;;;4.80;2.15;;;;;;;37.38;25.03;100911.38;10584918;28;20051;-61
2021/06/17 13:07:15;;;;;;;4.57;2.10;;;;;;;37.73;25.47;100908.00;10584188;28;20051;-61
2021/06/17 13:12:27;;;;;;;8.15;2.00;;;;;;;37.87;25.71;100921.16;10583367;28;20048;-63
2021/06/17 13:17:30;;;;;;;5.80;1.95;;;;;;;38.52;25.30;100920.75;10584154;28;20048;-62
2021/06/17 13:22:47;;;;;;;3.95;1.95;;;;;;;37.10;25.87;100940.63;10583770;28;20418;-61
2021/06/17 13:27:50;;;;;;;5.43;2.15;;;;;;;37.70;25.99;100937.75;10583090;28;20053;-62
2021/06/17 13:32:52;;;;;;;7.75;1.90;;;;;;;37.77;26.66;100940.25;10584235;28;20063;-62
2021/06/17 13:37:55;;;;;;;7.03;2.22;;;;;;;37.66;25.65;100929.28;10583380;28;20059;-62
2021/06/17 13:43:13;;;;;;;4.40;2.08;;;;;;;37.40;28.30;100936.47;10583425;28;20044;-60
2021/06/17 13:48:16;;;;;;;5.90;2.00;;;;;;;38.33;24.65;100937.69;10583072;28;20044;-62
2021/06/17 13:53:18;;;;;;;8.77;2.50;;;;;;;36.67;28.11;100931.56;10582922;27;20105;-61
2021/06/17 13:58:21;;;;;;;5.13;1.85;;;;;;;37.00;26.30;100937.84;10581419;28;20109;-62
2021/06/17 14:03:23;;;;;;;6.40;2.05;;;;;;;37.74;28.06;100925.19;10582569;27;20052;-61
2021/06/17 14:08:27;;;;;;;4.70;2.20;;;;;;;37.26;27.87;100933.41;10581078;28;20204;-62
2021/06/17 14:13:29;;;;;;;11.75;2.22;;;;;;;37.23;26.79;100947.59;10582273;28;20134;-62
2021/06/17 14:18:31;;;;;;;4.00;2.33;;;;;;;37.52;26.39;100939.00;10581980;28;20047;-62
2021/06/17 14:23:34;;;;;;;4.55;2.30;;;;;;;37.64;27.15;100933.31;10581914;28;20062;-61
2021/06/17 14:28:36;;;;;;;8.25;2.60;;;;;;;35.94;31.81;100936.50;10581781;28;20048;-61
2021/06/17 14:33:39;;;;;;;10.32;2.28;;;;;;;37.41;27.00;100931.84;10564120;28;20059;-62
2021/06/17 14:38:41;;;;;;;5.50;2.05;;;;;;;35.16;30.29;100946.28;10587365;28;20055;-61
2021/06/17 14:43:44;;;;;;;6.75;2.20;;;;;;;35.64;30.41;100943.16;10590528;28;20051;-62
2021/06/17 14:48:48;;;;;;;3.47;1.70;;;;;;;37.29;28.79;100934.78;10590106;28;20455;-63
2021/06/17 14:53:51;;;;;;;10.38;2.55;;;;;;;37.36;27.74;100952.56;10590526;28;20051;-61
2021/06/17 14:58:54;;;;;;;10.75;2.20;;;;;;;37.12;28.96;100951.28;10590190;28;20058;-61
2021/06/17 15:03:56;;;;;;;4.03;1.70;;;;;;;37.07;26.14;100954.81;10589879;28;20069;-62
2021/06/17 15:08:59;;;;;;;5.15;1.67;;;;;;;37.27;26.26;100954.16;10588952;28;20498;-62
2021/06/17 15:14:03;;;;;;;9.07;1.80;;;;;;;35.87;27.49;100955.75;10589078;28;20062;-60
2021/06/17 15:19:06;;;;;;;4.85;1.70;;;;;;;36.77;27.42;100945.31;10588966;28;20043;-63
2021/06/17 15:24:09;;;;;;;6.55;1.52;;;;;;;35.62;26.14;100953.50;10588927;28;20051;-60
2021/06/17 15:29:12;;;;;;;5.55;1.50;;;;;;;36.18;26.13;100951.50;10588590;28;20124;-60
2021/06/17 15:34:14;;;;;;;4.78;1.42;;;;;;;36.28;26.48;100950.78;10588499;28;20047;-63
2021/06/17 15:39:17;;;;;;;7.43;1.83;;;;;;;35.36;27.20;100961.31;10588109;28;20513;-61
2021/06/17 15:44:23;;;;;;;3.03;1.27;;;;;;;35.32;28.65;100957.44;10587677;28;20048;-60
2021/06/17 15:49:25;;;;;;;5.80;1.23;;;;;;;36.37;26.08;100971.06;10586550;28;20051;-61
2021/06/17 15:54:28;;;;;;;3.90;1.50;;;;;;;35.61;29.00;100968.16;10586197;28;20517;-62
2021/06/17 15:59:30;;;;;;;4.63;1.60;;;;;;;34.96;30.42;100968.53;10587349;28;20475;-61
2021/06/17 16:04:32;;;;;;;7.35;2.03;;;;;;;34.47;33.28;100973.66;10586819;28;20055;-61
2021/06/17 16:09:35;;;;;;;8.68;2.30;;;;;;;34.28;35.01;100978.47;10586806;28;20482;-61
2021/06/17 16:14:38;;;;;;;6.90;2.50;;;;;;;34.08;34.96;100997.00;10586731;28;20502;-62
2021/06/17 16:19:43;;;;;;;8.77;3.05;;;;;;;32.50;39.16;100992.91;10586453;28;20483;-61
2021/06/17 16:24:47;;;;;;;4.95;2.33;;;;;;;31.72;39.58;101000.66;10586153;28;20047;-61
2021/06/17 16:29:49;;;;;;;13.13;2.97;;;;;;;31.81;40.30;100991.19;10586358;28;20051;-62
2021/06/17 16:34:52;;;;;;;8.98;2.63;;;;;;;32.26;39.85;101003.59;10585815;28;20409;-61
2021/06/17 16:39:54;;;;;;;15.75;3.05;;;;;;;31.38;40.19;100988.47;10586019;28;20058;-62
2021/06/17 16:44:57;;;;;;;3.83;2.97;;;;;;;31.72;38.99;100986.28;10585215;28;20059;-62
2021/06/17 16:50:03;;;;;;;7.72;2.47;;;;;;;32.07;38.82;100993.88;10585461;28;20137;-62
2021/06/17 16:55:09;;;;;;;6.18;3.10;;;;;;;32.17;39.21;100988.75;10585302;28;20047;-60
2021/06/17 17:00:18;;;;;;;4.13;2.30;;;;;;;32.09;39.20;100989.84;10584947;28;20048;-62
2021/06/17 17:05:20;;;;;;;3.95;2.78;;;;;;;31.97;38.67;100987.03;10584755;28;20040;-61
2021/06/17 17:10:23;;;;;;;5.85;2.20;;;;;;;31.95;39.14;100991.06;10583434;28;20071;-61
2021/06/17 17:15:26;;;;;;;10.00;2.80;;;;;;;31.77;39.03;100991.84;10582872;28;20449;-62
2021/06/17 17:20:30;;;;;;;11.73;2.70;;;;;;;31.52;40.81;101010.84;10584487;28;20039;-60
2021/06/17 17:25:32;;;;;;;4.93;2.78;;;;;;;31.27;40.01;101017.03;10583783;28;20047;-62
2021/06/17 17:30:35;;;;;;;3.75;3.00;;;;;;;31.29;40.89;101021.19;10583854;27;20475;-61
2021/06/17 17:35:37;;;;;;;6.30;2.90;;;;;;;31.03;41.12;101029.50;10583651;28;20047;-61
2021/06/17 17:40:40;;;;;;;8.10;3.20;;;;;;;30.46;42.33;101023.97;10583500;28;20405;-61
2021/06/17 17:45:42;;;;;;;4.50;2.53;;;;;;;30.41;43.55;101030.00;10583227;28;20055;-61
2021/06/17 17:50:44;;;;;;;4.40;2.60;;;;;;;30.14;44.13;101035.47;10583040;28;20058;-62
2021/06/17 17:55:47;;;;;;;6.75;3.20;;;;;;;29.79;45.50;101034.91;10582690;28;20052;-61
2021/06/17 18:00:49;;;;;;;8.65;2.70;;;;;;;29.87;45.09;101034.69;10582820;28;20039;-62
2021/06/17 18:05:52;;;;;;;7.25;3.28;;;;;;;29.31;46.64;101057.50;10582687;28;20046;-62
2021/06/17 18:10:54;;;;;;;10.30;4.30;;;;;;;29.44;45.50;101046.72;10581880;28;20082;-62
2021/06/17 18:15:59;;;;;;;6.78;3.30;;;;;;;28.95;47.12;101049.72;10564080;28;20051;-62
2021/06/17 18:21:01;;;;;;;7.22;4.47;;;;;;;29.09;47.68;101063.03;10582407;28;20044;-63
2021/06/17 18:26:04;;;;;;;7.82;3.20;;;;;;;28.59;48.17;101072.41;10581868;28;20046;-62
2021/06/17 18:31:06;;;;;;;9.25;3.92;;;;;;;28.50;49.04;101069.88;10582267;28;20051;-62
2021/06/17 18:36:10;;;;;;;6.30;3.40;;;;;;;28.34;48.65;101071.03;10581664;28;20048;-61
2021/06/17 18:41:13;;;;;;;5.03;3.40;;;;;;;28.01;49.54;101072.69;10581851;28;20066;-60
2021/06/17 18:46:15;;;;;;;5.55;3.30;;;;;;;27.67;50.08;101074.25;10581305;28;20039;-60
2021/06/17 18:51:18;;;;;;;9.38;3.17;;;;;;;27.54;50.61;101069.63;10581328;28;20451;-62
2021/06/17 18:56:20;;;;;;;6.65;2.88;;;;;;;27.49;50.93;101078.25;10580265;28;20054;-60
2021/06/17 19:01:23;;;;;;;6.20;3.80;;;;;;;27.41;51.49;101084.59;10581447;28;20051;-60
2021/06/17 19:06:25;;;;;;;5.60;3.85;;;;;;;27.23;51.73;101090.41;10580891;28;20558;-61
2021/06/17 19:11:28;;;;;;;6.57;3.70;;;;;;;26.95;51.74;101089.44;10581304;28;20063;-61
2021/06/17 19:16:30;;;;;;;6.22;3.75;;;;;;;26.64;53.34;101093.19;10581482;28;20072;-60
2021/06/17 19:21:33;;;;;;;12.10;3.28;;;;;;;26.73;52.91;101102.84;10582131;28;20398;-62
2021/06/17 19:26:35;;;;;;;8.32;3.35;;;;;;;26.61;53.85;101099.75;10588709;28;20379;-61
2021/06/17 19:31:38;;;;;;;8.27;3.70;;;;;;;26.68;53.29;101103.38;10588289;28;20048;-60
2021/06/17 19:36:41;;;;;;;6.22;3.25;;;;;;;26.41;54.92;101112.06;10588308;28;20051;-60
2021/06/17 19:41:44;;;;;;;4.60;3.85;;;;;;;26.32;54.25;101114.00;10588514;28;20058;-60
2021/06/17 19:46:46;;;;;;;7.30;3.55;;;;;;;26.32;54.18;101122.88;10586749;28;20044;-61
2021/06/17 19:51:49;;;;;;;7.57;3.75;;;;;;;26.20;55.09;101135.09;10587652;28;20410;-60
2021/06/17 19:57:10;;;;;;;5.03;3.25;;;;;;;26.04;55.92;101137.91;10587541;28;20070;-61
2021/06/17 20:02:15;;;;;;;8.32;3.92;;;;;;;25.91;56.66;101144.72;10587988;28;20047;-61
2021/06/17 20:07:18;;;;;;;8.65;4.35;;;;;;;25.66;57.17;101159.34;10586811;28;20061;-60
2021/06/17 20:12:21;;;;;;;12.70;3.20;;;;;;;25.83;56.31;101176.13;10587075;28;20424;-60
2021/06/17 20:17:24;;;;;;;5.18;3.50;;;;;;;25.72;56.60;101186.28;10587154;28;20052;-62
2021/06/17 20:22:26;;;;;;;7.05;3.75;;;;;;;25.81;55.99;101184.34;10586640;28;20048;-62
2021/06/17 20:27:29;;;;;;;4.53;4.07;;;;;;;25.52;57.89;101193.94;10586146;28;20051;-61
2021/06/17 20:32:31;;;;;;;9.82;4.25;;;;;;;25.44;57.64;101207.38;10586022;28;20055;-61
2021/06/17 20:37:35;;;;;;;7.97;4.07;;;;;;;25.13;60.11;101215.38;10586193;28;20105;-60
2021/06/17 20:42:38;;;;;;;4.05;3.65;;;;;;;25.18;60.05;101215.69;10584612;28;20418;-61
2021/06/17 20:47:41;;;;;;;6.60;4.50;;;;;;;25.05;59.49;101216.25;10585345;28;20044;-60
2021/06/17 20:52:43;;;;;;;5.50;4.90;;;;;;;24.99;59.28;101212.41;10585019;28;20043;-60
2021/06/17 20:57:46;;;;;;;6.53;4.93;;;;;;;24.91;59.22;101227.66;10584819;28;20047;-61
2021/06/17 21:02:48;;;;;;;6.30;4.03;;;;;;;24.88;59.03;101228.00;10584849;28;20505;-60
2021/06/17 21:07:50;;;;;;;6.85;4.68;;;;;;;24.93;57.99;101234.53;10584513;28;20487;-61
2021/06/17 21:12:53;;;;;;;7.63;4.38;;;;;;;25.15;57.89;101224.91;10585124;28;20039;-61
2021/06/17 21:18:03;;;;;;;8.15;4.32;;;;;;;25.14;57.65;101230.44;10584435;28;20130;-60
2021/06/17 21:23:06;;;;;;;5.78;3.67;;;;;;;24.73;59.57;101231.41;10582998;28;20521;-60
2021/06/17 21:28:09;;;;;;;8.43;4.47;;;;;;;24.59;59.46;101232.91;10583606;28;20048;-61
2021/06/17 21:33:11;;;;;;;8.63;5.68;;;;;;;24.70;60.84;101229.06;10583463;28;20054;-61
2021/06/17 21:38:14;;;;;;;4.78;4.32;;;;;;;24.58;60.21;101236.63;10583634;28;20047;-61
2021/06/17 21:43:18;;;;;;;6.03;4.10;;;;;;;24.63;60.96;101244.16;10583259;28;20054;-61
2021/06/17 21:48:25;;;;;;;6.78;4.18;;;;;;;24.26;61.65;101251.66;10582486;28;20044;-60
2021/06/17 21:53:27;;;;;;;5.15;4.43;;;;;;;24.04;62.54;101255.81;10582961;28;20058;-62
2021/06/17 21:58:30;;;;;;;6.10;4.82;;;;;;;24.15;62.41;101256.50;10582534;28;20047;-62
2021/06/17 22:03:32;;;;;;;7.18;4.05;;;;;;;24.07;62.06;101260.84;10582531;28;20487;-61
2021/06/17 22:08:35;;;;;;;6.95;4.57;;;;;;;24.08;62.29;101273.19;10582102;28;20055;-60
2021/06/17 22:13:37;;;;;;;8.38;5.00;;;;;;;23.81;63.48;101273.47;10583125;28;20132;-60
2021/06/17 22:18:39;;;;;;;13.93;6.80;;;;;;;23.53;64.58;101274.53;10582225;28;20043;-61
2021/06/17 22:23:42;;;;;;;7.60;4.78;;;;;;;23.36;65.05;101278.97;10582044;28;20047;-60
2021/06/17 22:28:44;;;;;;;6.32;4.90;;;;;;;23.51;64.34;101295.25;10582418;28;20039;-59
2021/06/17 22:33:46;;;;;;;8.07;5.13;;;;;;;23.43;65.34;101287.19;10581807;28;20505;-61
2021/06/17 22:38:49;;;;;;;8.60;4.78;;;;;;;23.20;65.74;101276.25;10581714;28;20463;-60
2021/06/17 22:43:51;;;;;;;7.60;5.28;;;;;;;23.19;65.74;101283.41;10581648;28;20073;-60
2021/06/17 22:48:53;;;;;;;9.90;6.00;;;;;;;23.12;65.25;101276.22;10581674;28;20050;-60
2021/06/17 22:53:56;;;;;;;5.95;5.03;;;;;;;23.13;64.93;101286.72;10581850;28;20044;-60
2021/06/17 22:58:58;;;;;;;7.32;5.53;;;;;;;23.10;65.49;101287.03;10586674;28;20056;-60
2021/06/17 23:04:00;;;;;;;6.53;5.05;;;;;;;23.11;65.76;101299.38;10589527;28;20483;-60
2021/06/17 23:09:04;;;;;;;4.72;4.22;;;;;;;22.99;65.79;101293.44;10589418;28;20051;-61
2021/06/17 23:14:06;;;;;;;8.77;5.85;;;;;;;22.81;66.21;101296.19;10590070;28;20059;-60
2021/06/17 23:19:09;;;;;;;9.95;4.72;;;;;;;22.94;65.93;101303.75;10587876;28;20047;-60